Harwood, MD (20776)

10:41 AM EDT on July 27, 2016 (GMT -0400)
Birdsville | | Change Station

Elev 151 ft 38.90 °N, 76.60 °W | Updated 11 minutes ago

Partly Cloudy
Partly Cloudy
85.6 °F
Feels Like 94 °F
N
0.0
Wind Variable Wind from South
Gusts 0.0 mph

Today
High -- | Low -- °F
--% Chance of Precip.
Yesterday
High -- | Low -- °F
Precip. -- in
Pressure 29.95 in
Visibility 10.0 miles
Clouds Few 11000 ft
Heat Index 94 °F
Dew Point 74 °F
Humidity 69%
Rainfall 0.00 in
Snow Depth Not available.
6:03 AM 8:21 PM
Last Quarter, 42% visible
METAR KNAK 271354Z AUTO 33005KT 10SM FEW110 29/22 A2994 RMK AO2 SLP141 T02890222
Pressure 29.95 in
Visibility 10.0 miles
Clouds Few 11000 ft
Heat Index 94 °F
Dew Point 74 °F
Humidity 69%
Rainfall 0.00 in
Snow Depth Not available.
6:03 AM 8:21 PM
Last Quarter, 42% visible
METAR KNAK 271354Z AUTO 33005KT 10SM FEW110 29/22 A2994 RMK AO2 SLP141 T02890222

10-Day Weather Forecast

Almanac

Astronomy

Jul. 27, 2016 Rise Set
Actual Time
Civil Twilight
Nautical Twilight
Astronomical Twilight
Moon
Length of Visible Light
Length of Day
Tomorrow will be .
, % of the Moon is Illuminated

Today's Extremes

State Highs State Lows

Community

WunderPhotos

Upload Photos

1,927,847 photos uploaded!

WunderBlog® & News

Nearby

Air Quality

  Air Quality AQ Index Pollutant
Not available.

Snow Depth

Station Depth Elevation

Earthquake Activity

City Distance Mag. Time & Date
Minimum magnitude displayed is 2.5.

Coastal Water Temperatures

Place Temperature

Stations

Nearby Weather Stations

Station Location Temp. Windchill Dew Point Humidity Wind Precip. Elev Updated Type
                   

Watches & Warnings

There are currently no watches in effect.